Time;durP1;ratioP1;P1;durP2;ratioP2;P2;SDS_P1;SDS_P2;PMS_P1;PMS_P2;Temp;Humidity;BMP_temperature;BMP_pressure;BME280_temperature;BME280_humidity;BME280_pressure;Samples;Min_cycle;Max_cycle;Signal;HPM_P1;HPM_P2
2022/01/15 00:00:38;;;;;;;57.00;35.97;;;6.40;99.90;;;;;;5160931;27;20188;-91
2022/01/15 00:03:05;;;;;;;54.57;35.07;;;6.40;99.90;;;;;;5150256;27;20152;-84
2022/01/15 00:05:33;;;;;;;51.00;33.47;;;6.40;99.90;;;;;;5157712;27;20216;-83
2022/01/15 00:07:59;;;;;;;52.60;34.30;;;6.30;99.90;;;;;;5155440;27;20173;-89
2022/01/15 00:10:28;;;;;;;54.40;35.83;;;6.40;99.90;;;;;;5149905;27;20174;-91
2022/01/15 00:12:56;;;;;;;52.77;35.43;;;6.30;99.90;;;;;;5148708;27;20162;-91
2022/01/15 00:15:27;;;;;;;48.30;31.83;;;6.30;99.90;;;;;;5160788;27;20162;-91
2022/01/15 00:18:04;;;;;;;52.37;34.40;;;6.30;99.80;;;;;;5140217;27;20248;-90
2022/01/15 00:20:42;;;;;;;52.10;32.80;;;6.20;99.90;;;;;;5158527;27;20613;-89
2022/01/15 00:23:08;;;;;;;51.33;33.33;;;6.20;99.90;;;;;;5140425;27;20165;-90
2022/01/15 00:25:36;;;;;;;52.27;33.33;;;6.10;99.90;;;;;;5158151;27;20559;-91
2022/01/15 00:28:02;;;;;;;53.43;34.40;;;6.10;99.90;;;;;;5140446;27;20272;-85
2022/01/15 00:30:28;;;;;;;55.80;35.80;;;6.10;99.90;;;;;;5159365;27;20155;-92
2022/01/15 00:32:54;;;;;;;49.00;33.27;;;6.20;99.90;;;;;;5157445;27;20189;-90
2022/01/15 00:35:21;;;;;;;52.70;33.97;;;6.20;99.90;;;;;;5158719;27;20534;-91
2022/01/15 00:37:47;;;;;;;46.37;32.10;;;6.30;99.90;;;;;;5148353;27;20193;-82
2022/01/15 00:40:17;;;;;;;52.93;35.50;;;6.20;99.90;;;;;;5157787;27;20173;-87
2022/01/15 00:42:43;;;;;;;46.63;32.73;;;6.20;99.60;;;;;;5156915;27;20175;-81
2022/01/15 00:45:14;;;;;;;48.20;32.00;;;6.10;99.70;;;;;;5148522;27;20209;-92
2022/01/15 00:47:40;;;;;;;45.67;30.37;;;6.10;99.90;;;;;;5143745;27;20232;-89
2022/01/15 00:50:07;;;;;;;50.93;32.57;;;6.10;99.80;;;;;;5164826;27;20183;-90
2022/01/15 00:52:37;;;;;;;46.17;31.17;;;6.20;99.60;;;;;;5176564;27;20154;-83
2022/01/15 00:55:18;;;;;;;46.77;31.43;;;6.10;99.60;;;;;;5174782;27;20146;-80
2022/01/15 00:57:46;;;;;;;46.57;30.60;;;6.20;99.20;;;;;;5162136;27;20188;-83
2022/01/15 01:00:27;;;;;;;48.83;32.83;;;6.10;99.00;;;;;;5175726;27;20173;-82
2022/01/15 01:02:55;;;;;;;44.40;30.83;;;6.10;98.90;;;;;;5159898;27;20160;-91
2022/01/15 01:05:21;;;;;;;49.87;32.00;;;6.10;98.80;;;;;;5138923;27;20205;-90
2022/01/15 01:07:47;;;;;;;47.97;31.07;;;6.10;98.50;;;;;;5149728;27;20178;-84
2022/01/15 01:23:29;;;;;;;49.30;33.47;;;5.70;99.90;;;;;;5161169;27;20194;-90
2022/01/15 01:26:04;;;;;;;46.13;32.87;;;5.90;99.90;;;;;;5160613;27;20216;-88
2022/01/15 01:28:38;;;;;;;53.13;35.17;;;6.00;99.90;;;;;;5141966;27;20173;-82
2022/01/15 01:31:15;;;;;;;49.47;33.63;;;6.20;99.80;;;;;;5160037;27;20249;-91
2022/01/15 01:33:46;;;;;;;48.97;35.00;;;6.30;99.10;;;;;;5141623;27;20196;-88
2022/01/15 01:38:46;;;;;;;47.57;33.70;;;6.50;98.70;;;;;;5160914;27;20185;-91
2022/01/15 01:41:17;;;;;;;50.03;34.10;;;6.40;98.40;;;;;;5143299;27;20153;-89
2022/01/15 01:43:48;;;;;;;49.70;36.23;;;6.40;98.10;;;;;;5148192;27;20214;-85
2022/01/15 01:48:41;;;;;;;50.83;34.87;;;6.10;96.30;;;;;;5169995;27;20162;-89
2022/01/15 01:51:08;;;;;;;49.57;33.03;;;5.90;97.50;;;;;;5172636;27;20200;-85
2022/01/15 01:53:34;;;;;;;50.30;34.83;;;5.60;98.30;;;;;;5175557;27;20166;-83
2022/01/15 01:56:00;;;;;;;51.33;34.83;;;5.50;99.40;;;;;;5145723;27;20233;-90
2022/01/15 01:58:26;;;;;;;49.27;34.67;;;5.60;99.80;;;;;;5148128;27;20584;-89
2022/01/15 02:00:54;;;;;;;54.10;37.00;;;5.50;99.90;;;;;;5155689;27;20177;-87
2022/01/15 02:03:19;;;;;;;58.83;37.97;;;5.50;99.90;;;;;;5164249;27;20181;-83
2022/01/15 02:05:45;;;;;;;55.70;37.03;;;5.50;99.90;;;;;;5155563;27;20228;-85
2022/01/15 02:08:15;;;;;;;58.67;40.13;;;5.70;99.90;;;;;;5148762;27;20170;-84
2022/01/15 02:10:43;;;;;;;58.53;40.23;;;5.80;99.90;;;;;;5141415;27;20173;-90
2022/01/15 02:13:13;;;;;;;52.80;37.20;;;6.00;99.90;;;;;;5159745;27;20166;-91
2022/01/15 02:15:39;;;;;;;53.93;36.80;;;6.00;99.60;;;;;;5159803;27;20249;-91
2022/01/15 02:18:05;;;;;;;57.00;38.80;;;5.90;99.20;;;;;;5140931;27;20201;-89
2022/01/15 02:25:44;;;;;;;52.90;36.90;;;5.80;98.70;;;;;;5159234;27;20258;-88
2022/01/15 02:28:10;;;;;;;53.40;36.80;;;5.80;99.00;;;;;;5159572;27;20574;-89
2022/01/15 02:30:36;;;;;;;57.77;37.97;;;5.80;98.90;;;;;;5159888;27;20165;-90
2022/01/15 02:33:05;;;;;;;61.23;38.33;;;6.00;98.90;;;;;;5140365;27;20169;-82
2022/01/15 02:35:31;;;;;;;59.07;38.97;;;6.10;98.60;;;;;;5141169;27;20166;-87
2022/01/15 02:38:07;;;;;;;54.70;38.07;;;6.30;98.30;;;;;;5140905;27;20193;-86
2022/01/15 02:40:35;;;;;;;54.33;37.50;;;6.20;97.80;;;;;;5140666;27;20272;-91
2022/01/15 02:43:12;;;;;;;56.00;38.17;;;6.10;97.10;;;;;;5158160;27;20168;-90
2022/01/15 02:45:42;;;;;;;56.77;38.83;;;5.80;97.40;;;;;;5158450;27;20279;-82
2022/01/15 02:48:17;;;;;;;59.43;39.73;;;5.80;98.30;;;;;;5158839;27;20218;-91
2022/01/15 02:50:46;;;;;;;56.30;37.57;;;5.70;98.50;;;;;;5175784;27;20225;-81
2022/01/15 02:53:13;;;;;;;59.90;39.30;;;5.70;98.50;;;;;;5161667;27;20170;-82
2022/01/15 02:55:46;;;;;;;60.33;37.27;;;5.70;98.50;;;;;;5164189;27;20192;-89
2022/01/15 02:58:16;;;;;;;58.53;38.03;;;5.70;98.30;;;;;;5171172;27;20176;-80
2022/01/15 03:00:58;;;;;;;62.13;40.17;;;5.60;98.40;;;;;;5161493;27;20166;-81
2022/01/15 03:03:39;;;;;;;63.83;40.27;;;5.60;98.50;;;;;;5139913;27;20651;-90
2022/01/15 03:06:10;;;;;;;66.20;41.67;;;5.50;99.00;;;;;;5159659;27;20197;-89
2022/01/15 03:08:37;;;;;;;66.63;41.50;;;5.60;99.20;;;;;;5155532;27;20232;-84
2022/01/15 03:11:11;;;;;;;66.13;41.27;;;5.60;99.50;;;;;;5162099;27;20195;-84
2022/01/15 03:13:38;;;;;;;68.80;43.63;;;5.40;99.10;;;;;;5155029;27;20191;-92
2022/01/15 03:16:08;;;;;;;64.40;41.90;;;5.30;99.70;;;;;;5141621;27;20165;-88
2022/01/15 03:18:33;;;;;;;68.23;42.07;;;5.30;99.90;;;;;;5173189;27;20178;-88
2022/01/15 03:21:00;;;;;;;74.07;43.87;;;5.30;99.90;;;;;;5162227;27;20752;-82
2022/01/15 03:23:25;;;;;;;70.40;44.07;;;5.40;99.90;;;;;;5176693;27;20177;-82
2022/01/15 03:26:16;;;;;;;72.03;44.30;;;5.40;99.90;;;;;;5152141;27;20300;-89
2022/01/15 03:28:43;;;;;;;72.17;41.50;;;5.40;99.90;;;;;;5173926;27;20233;-82
2022/01/15 03:31:09;;;;;;;71.23;43.23;;;5.50;99.90;;;;;;5159006;27;20153;-89
2022/01/15 03:33:34;;;;;;;71.70;42.90;;;5.40;99.60;;;;;;5153992;27;20652;-88
2022/01/15 03:36:00;;;;;;;72.10;45.00;;;5.40;99.90;;;;;;5180110;27;20395;-84
2022/01/15 03:38:26;;;;;;;73.20;44.80;;;5.40;99.70;;;;;;5162680;27;20173;-85
2022/01/15 03:40:55;;;;;;;78.40;45.00;;;5.50;99.90;;;;;;5176873;27;20177;-91
2022/01/15 03:44:11;;;;;;;70.50;42.83;;;5.70;99.70;;;;;;5140327;27;20253;-91
2022/01/15 03:46:37;;;;;;;68.87;43.17;;;5.40;99.00;;;;;;5140083;27;20185;-90
2022/01/15 03:49:03;;;;;;;73.47;43.20;;;5.20;99.30;;;;;;5158378;27;20504;-90
2022/01/15 03:51:29;;;;;;;71.57;45.03;;;5.20;99.60;;;;;;5140511;27;20188;-87
2022/01/15 03:53:54;;;;;;;74.17;44.00;;;5.50;99.90;;;;;;5159649;27;20170;-89
2022/01/15 03:56:20;;;;;;;71.77;42.90;;;5.50;99.50;;;;;;5160537;27;20201;-84
2022/01/15 03:58:46;;;;;;;72.13;44.03;;;5.70;99.20;;;;;;5146062;27;20276;-86
2022/01/15 04:01:11;;;;;;;72.20;42.40;;;5.60;98.80;;;;;;5161790;27;20170;-83
2022/01/15 04:03:38;;;;;;;76.07;45.50;;;5.60;98.50;;;;;;5140598;27;20177;-91
2022/01/15 04:06:04;;;;;;;67.23;39.90;;;5.40;98.70;;;;;;5142646;27;20209;-87
2022/01/15 04:08:29;;;;;;;75.90;42.57;;;5.30;98.80;;;;;;5146920;27;20162;-87
2022/01/15 04:10:56;;;;;;;65.40;40.80;;;5.30;99.00;;;;;;5148163;27;20172;-86
2022/01/15 04:13:21;;;;;;;73.93;41.27;;;5.20;98.90;;;;;;5170195;27;20170;-81
2022/01/15 04:15:52;;;;;;;78.37;45.83;;;5.10;99.30;;;;;;5149284;27;20173;-91
2022/01/15 04:18:22;;;;;;;74.37;43.20;;;5.10;99.50;;;;;;5162303;27;20150;-88
2022/01/15 04:20:48;;;;;;;76.87;42.93;;;5.20;99.70;;;;;;5158887;27;20150;-90
2022/01/15 04:23:14;;;;;;;72.07;42.33;;;5.30;99.90;;;;;;5141318;27;20169;-82
2022/01/15 04:25:40;;;;;;;68.30;41.40;;;5.50;99.70;;;;;;5142116;27;20241;-84
2022/01/15 04:28:09;;;;;;;71.60;41.77;;;5.50;99.40;;;;;;5142515;27;20629;-90
2022/01/15 04:30:36;;;;;;;68.30;42.03;;;5.60;99.40;;;;;;5163610;27;20170;-90
2022/01/15 04:33:02;;;;;;;72.80;43.03;;;5.60;99.20;;;;;;5144922;27;20264;-90
2022/01/15 04:35:30;;;;;;;74.83;41.53;;;5.60;99.00;;;;;;5142907;27;20209;-81
2022/01/15 04:38:03;;;;;;;67.60;40.37;;;5.60;98.70;;;;;;5121390;27;20709;-92
2022/01/15 04:40:28;;;;;;;70.90;42.53;;;5.60;98.70;;;;;;5158486;27;20701;-92
2022/01/15 04:42:54;;;;;;;74.50;41.17;;;5.50;98.50;;;;;;5141463;27;20169;-89
2022/01/15 04:45:20;;;;;;;72.73;43.63;;;5.50;98.30;;;;;;5172234;27;20234;-85
2022/01/15 04:47:45;;;;;;;70.43;40.80;;;5.50;98.20;;;;;;5178952;27;20602;-81
2022/01/15 04:50:13;;;;;;;74.80;40.60;;;5.30;98.20;;;;;;5179096;27;20153;-85
2022/01/15 04:52:43;;;;;;;72.93;41.47;;;5.30;98.60;;;;;;5154555;27;20169;-91
2022/01/15 04:55:14;;;;;;;74.10;40.40;;;5.10;99.10;;;;;;5147053;27;20539;-87
2022/01/15 04:57:41;;;;;;;70.17;40.37;;;5.00;99.70;;;;;;5159297;27;20173;-90
2022/01/15 05:00:14;;;;;;;74.37;39.13;;;4.80;99.90;;;;;;5159241;27;20235;-85
2022/01/15 05:02:40;;;;;;;76.73;42.00;;;4.70;99.90;;;;;;5148034;27;20158;-81
2022/01/15 05:05:07;;;;;;;80.87;42.07;;;4.60;99.90;;;;;;5159182;27;20276;-81
2022/01/15 05:07:38;;;;;;;83.33;42.23;;;4.70;99.90;;;;;;5168987;27;20165;-89
2022/01/15 05:10:48;;;;;;;76.17;41.03;;;4.70;99.90;;;;;;5140089;27;20172;-89
2022/01/15 05:13:16;;;;;;;80.10;40.30;;;4.60;99.90;;;;;;5144223;27;20165;-82
2022/01/15 05:15:46;;;;;;;75.60;39.63;;;4.60;99.90;;;;;;5158695;27;20182;-82
2022/01/15 05:18:23;;;;;;;79.73;41.00;;;4.60;99.90;;;;;;5156984;27;20169;-81
2022/01/15 05:20:52;;;;;;;78.23;40.43;;;4.50;99.90;;;;;;5176350;27;20239;-81
2022/01/15 05:23:19;;;;;;;83.17;40.57;;;4.40;99.90;;;;;;5145947;27;20177;-89
2022/01/15 05:25:44;;;;;;;87.53;41.63;;;4.30;99.90;;;;;;5151766;27;20209;-87
2022/01/15 05:28:14;;;;;;;83.13;40.23;;;4.40;99.90;;;;;;5166142;27;20185;-85
2022/01/15 05:31:12;;;;;;;92.30;42.90;;;4.50;99.90;;;;;;5152475;27;20177;-86
2022/01/15 05:33:41;;;;;;;84.40;42.93;;;4.40;99.90;;;;;;5148173;27;20193;-91
2022/01/15 05:36:06;;;;;;;85.77;44.17;;;4.50;99.90;;;;;;5138571;27;20576;-81
2022/01/15 05:38:32;;;;;;;92.50;44.43;;;4.50;99.90;;;;;;5138488;27;20185;-89
2022/01/15 05:40:57;;;;;;;89.13;42.93;;;4.50;99.90;;;;;;5150435;27;20178;-87
2022/01/15 05:43:24;;;;;;;89.90;44.93;;;4.50;99.90;;;;;;5160350;27;20169;-82
2022/01/15 05:45:52;;;;;;;90.63;43.87;;;4.70;99.90;;;;;;5156745;27;20197;-89
2022/01/15 05:48:23;;;;;;;85.43;42.87;;;4.70;99.90;;;;;;5142371;27;20154;-90
2022/01/15 05:50:49;;;;;;;78.40;41.80;;;4.80;99.90;;;;;;5149575;27;20204;-82
2022/01/15 05:53:15;;;;;;;84.73;40.80;;;4.90;99.90;;;;;;5151910;27;20170;-84
2022/01/15 05:55:41;;;;;;;79.53;41.27;;;4.90;99.90;;;;;;5169343;27;20165;-85
2022/01/15 05:58:10;;;;;;;79.73;40.57;;;5.10;99.90;;;;;;5162940;27;20188;-84
2022/01/15 06:00:36;;;;;;;79.27;39.87;;;4.90;99.90;;;;;;5163953;27;20182;-83
2022/01/15 06:03:02;;;;;;;77.83;39.37;;;4.60;99.90;;;;;;5179414;27;20169;-89
2022/01/15 06:05:46;;;;;;;83.60;39.73;;;4.40;99.90;;;;;;5160504;27;20209;-87
2022/01/15 06:08:12;;;;;;;77.27;38.37;;;4.40;99.90;;;;;;5162207;27;20158;-85
2022/01/15 06:10:38;;;;;;;80.43;39.57;;;4.40;99.90;;;;;;5142613;27;20172;-83
2022/01/15 06:13:04;;;;;;;76.10;38.93;;;4.60;99.90;;;;;;5142546;27;20180;-85
2022/01/15 06:15:29;;;;;;;78.57;38.73;;;4.50;99.90;;;;;;5145086;27;20166;-92
2022/01/15 06:17:55;;;;;;;84.73;42.43;;;4.70;99.90;;;;;;5144727;27;20629;-89
2022/01/15 06:20:23;;;;;;;81.17;38.87;;;4.60;99.90;;;;;;5143746;27;20173;-81
2022/01/15 06:22:49;;;;;;;86.13;40.60;;;4.70;99.90;;;;;;5144518;27;20170;-84
2022/01/15 06:25:15;;;;;;;76.63;37.57;;;5.00;99.90;;;;;;5143229;27;20201;-90
2022/01/15 06:27:41;;;;;;;74.10;36.97;;;4.80;99.90;;;;;;5147921;27;20192;-89
2022/01/15 06:30:07;;;;;;;75.33;39.20;;;4.60;99.90;;;;;;5164590;27;20195;-85
2022/01/15 06:32:36;;;;;;;72.63;37.80;;;4.60;99.90;;;;;;5161330;27;20165;-91
2022/01/15 06:35:14;;;;;;;81.00;39.13;;;4.60;99.90;;;;;;5143343;27;20177;-88
2022/01/15 06:37:40;;;;;;;82.20;38.50;;;4.60;99.90;;;;;;5142954;27;20189;-89
2022/01/15 06:40:08;;;;;;;73.13;36.90;;;4.60;99.90;;;;;;5147360;27;20174;-90
2022/01/15 06:42:35;;;;;;;77.63;38.53;;;4.60;99.90;;;;;;5149793;27;20160;-87
2022/01/15 06:45:00;;;;;;;77.47;35.17;;;4.60;99.90;;;;;;5180503;27;20216;-87
2022/01/15 06:47:35;;;;;;;82.47;38.50;;;4.50;99.90;;;;;;5173150;27;20178;-85
2022/01/15 06:50:08;;;;;;;83.53;39.30;;;4.50;99.90;;;;;;5160470;27;20166;-91
2022/01/15 06:52:38;;;;;;;75.97;36.93;;;4.50;99.90;;;;;;5143013;27;20181;-82
2022/01/15 06:55:06;;;;;;;72.23;37.10;;;4.50;99.90;;;;;;5146959;27;20241;-84
2022/01/15 06:57:32;;;;;;;72.47;37.73;;;4.70;99.90;;;;;;5163367;27;20183;-83
2022/01/15 07:00:01;;;;;;;72.50;36.80;;;4.80;99.90;;;;;;5159489;27;20193;-83
2022/01/15 07:02:27;;;;;;;72.30;35.57;;;4.90;99.90;;;;;;5174318;27;20209;-85
2022/01/15 07:04:53;;;;;;;70.27;37.17;;;5.10;99.90;;;;;;5144827;27;20200;-91
2022/01/15 07:07:19;;;;;;;75.07;36.33;;;4.80;99.90;;;;;;5159085;27;20162;-82
2022/01/15 07:09:44;;;;;;;72.53;36.27;;;4.70;99.90;;;;;;5159474;27;20201;-88
2022/01/15 07:12:10;;;;;;;70.10;36.37;;;4.60;99.90;;;;;;5140988;27;20165;-90
2022/01/15 07:14:36;;;;;;;72.43;36.07;;;4.50;99.90;;;;;;5140712;27;20166;-88
2022/01/15 07:17:02;;;;;;;69.43;34.33;;;4.50;99.90;;;;;;5140771;27;20230;-90
2022/01/15 07:19:28;;;;;;;71.40;34.73;;;4.50;99.90;;;;;;5140407;27;20257;-88
2022/01/15 07:21:54;;;;;;;69.67;34.60;;;4.50;99.90;;;;;;5140839;27;20222;-90
2022/01/15 07:24:19;;;;;;;63.37;33.73;;;4.50;99.90;;;;;;5140539;27;20217;-89
2022/01/15 07:26:47;;;;;;;63.43;32.20;;;4.40;99.90;;;;;;5139890;27;20177;-91
2022/01/15 07:29:16;;;;;;;58.03;32.00;;;4.30;99.90;;;;;;5176572;27;20150;-84
2022/01/15 07:31:45;;;;;;;53.27;28.73;;;4.20;99.90;;;;;;5163139;27;20189;-83
2022/01/15 07:34:11;;;;;;;58.93;31.43;;;4.10;99.90;;;;;;5155500;27;20289;-82
2022/01/15 07:36:39;;;;;;;55.67;30.10;;;4.00;99.90;;;;;;5147714;27;20162;-89
2022/01/15 07:42:34;;;;;;;59.70;30.00;;;4.10;99.90;;;;;;5160573;27;20443;-81
2022/01/15 07:45:00;;;;;;;58.87;31.63;;;4.50;99.90;;;;;;5148875;27;20612;-82
2022/01/15 07:47:26;;;;;;;56.50;32.10;;;4.60;99.90;;;;;;5148019;27;20174;-88
2022/01/15 07:49:51;;;;;;;55.73;30.47;;;4.60;99.90;;;;;;5159107;27;20165;-86
2022/01/15 07:52:19;;;;;;;54.73;31.30;;;4.50;99.90;;;;;;5157336;27;20172;-82
2022/01/15 07:54:45;;;;;;;52.77;29.97;;;4.60;99.90;;;;;;5139625;27;20189;-84
2022/01/15 07:57:10;;;;;;;50.67;29.03;;;4.60;99.90;;;;;;5158180;27;20166;-82
2022/01/15 07:59:39;;;;;;;54.43;29.30;;;4.30;99.90;;;;;;5158966;27;20204;-81
2022/01/15 08:02:05;;;;;;;53.27;28.73;;;4.00;99.90;;;;;;5152723;27;20169;-85
2022/01/15 08:04:31;;;;;;;53.13;29.13;;;3.90;99.90;;;;;;5143216;27;20205;-86
2022/01/15 08:06:57;;;;;;;57.90;29.43;;;4.00;99.90;;;;;;5147086;27;20154;-82
2022/01/15 08:09:22;;;;;;;52.30;28.90;;;3.80;99.90;;;;;;5180294;27;20166;-81
2022/01/15 08:11:48;;;;;;;56.63;31.33;;;3.80;99.90;;;;;;5149980;27;20183;-82
2022/01/15 08:14:14;;;;;;;54.57;29.60;;;4.00;99.90;;;;;;5147290;27;20249;-81
2022/01/15 08:17:19;;;;;;;49.97;28.00;;;3.90;99.90;;;;;;5159402;27;20161;-82
2022/01/15 08:19:47;;;;;;;54.63;30.10;;;4.00;99.90;;;;;;5157672;27;20192;-88
2022/01/15 08:22:13;;;;;;;56.23;30.57;;;4.00;99.90;;;;;;5158600;27;20166;-85
2022/01/15 08:24:40;;;;;;;52.47;29.60;;;3.90;99.90;;;;;;5139647;27;20220;-86
2022/01/15 08:27:06;;;;;;;55.17;29.53;;;3.90;99.90;;;;;;5147623;27;20196;-81
2022/01/15 08:29:32;;;;;;;53.57;31.00;;;4.00;99.90;;;;;;5162218;27;20172;-86
2022/01/15 08:31:58;;;;;;;49.53;31.03;;;4.20;99.90;;;;;;5175130;27;20192;-83
2022/01/15 08:34:24;;;;;;;43.63;25.67;;;4.40;99.90;;;;;;5170497;27;20268;-82
2022/01/15 08:37:32;;;;;;;40.77;25.27;;;4.60;99.90;;;;;;5161190;27;20165;-87
2022/01/15 08:39:57;;;;;;;34.63;22.63;;;4.60;99.90;;;;;;5131748;27;20177;-82
2022/01/15 08:42:23;;;;;;;37.27;23.90;;;4.30;99.90;;;;;;5148045;27;20164;-82
2022/01/15 08:44:51;;;;;;;35.03;24.00;;;4.00;99.90;;;;;;5165687;27;20208;-87
2022/01/15 08:47:17;;;;;;;33.13;23.40;;;4.10;99.90;;;;;;5177643;27;20153;-88
2022/01/15 08:49:43;;;;;;;34.73;22.87;;;4.00;99.90;;;;;;5195078;27;20236;-85
2022/01/15 08:52:09;;;;;;;32.77;22.43;;;4.00;99.90;;;;;;5187359;27;20165;-86
2022/01/15 08:54:38;;;;;;;33.53;21.27;;;4.10;99.90;;;;;;5143690;27;20168;-84
2022/01/15 08:57:03;;;;;;;33.80;22.43;;;3.90;99.90;;;;;;5161086;27;20173;-89
2022/01/15 08:59:29;;;;;;;36.73;23.40;;;3.70;99.90;;;;;;5178528;27;20191;-87
2022/01/15 09:01:56;;;;;;;34.67;22.90;;;3.70;99.90;;;;;;5178151;27;20640;-90
2022/01/15 09:04:22;;;;;;;36.60;23.97;;;3.60;99.90;;;;;;5177132;27;20184;-88
2022/01/15 09:06:48;;;;;;;38.53;23.27;;;3.60;99.90;;;;;;5195304;27;20185;-82
2022/01/15 09:09:17;;;;;;;33.50;21.80;;;3.60;99.90;;;;;;5169265;27;20691;-88
2022/01/15 09:11:45;;;;;;;35.87;23.73;;;3.60;99.90;;;;;;5160637;27;20638;-85
2022/01/15 09:14:12;;;;;;;35.63;22.87;;;3.70;99.90;;;;;;5157236;27;20169;-84
2022/01/15 09:16:38;;;;;;;35.27;23.33;;;3.80;99.90;;;;;;5148574;27;20686;-90
2022/01/15 09:19:04;;;;;;;36.27;23.80;;;3.80;99.90;;;;;;5134015;27;20529;-87
2022/01/15 09:21:31;;;;;;;36.43;23.90;;;3.80;99.90;;;;;;5157698;27;20172;-82
2022/01/15 09:23:58;;;;;;;39.70;23.50;;;3.80;99.90;;;;;;5175503;27;20507;-85
2022/01/15 09:26:46;;;;;;;33.80;22.87;;;3.60;99.90;;;;;;5157590;27;20275;-86
2022/01/15 09:31:57;;;;;;;36.53;24.20;;;3.70;99.90;;;;;;5160033;27;20180;-84
2022/01/15 09:34:24;;;;;;;40.13;25.27;;;3.70;99.90;;;;;;5160497;27;20257;-90
2022/01/15 09:36:50;;;;;;;35.53;23.40;;;3.70;99.90;;;;;;5153464;27;20346;-86
2022/01/15 09:39:19;;;;;;;37.63;25.00;;;3.90;99.90;;;;;;5143139;27;20724;-90
2022/01/15 09:41:51;;;;;;;33.03;21.80;;;3.90;99.90;;;;;;5143612;27;20173;-86
2022/01/15 09:44:20;;;;;;;34.93;22.97;;;3.90;99.90;;;;;;5162420;27;20169;-84
2022/01/15 09:46:46;;;;;;;34.50;22.00;;;4.00;99.90;;;;;;5144472;27;20177;-85
2022/01/15 09:49:14;;;;;;;35.83;24.80;;;4.10;99.90;;;;;;5137446;27;20174;-84
2022/01/15 09:51:40;;;;;;;39.80;25.50;;;4.10;99.90;;;;;;5179364;27;20173;-85
2022/01/15 09:54:06;;;;;;;35.80;23.67;;;4.40;99.90;;;;;;5159592;27;20170;-84
2022/01/15 09:56:32;;;;;;;34.13;23.67;;;4.60;99.90;;;;;;5143711;27;20173;-83
2022/01/15 09:59:00;;;;;;;34.10;22.20;;;4.80;99.90;;;;;;5162832;27;20185;-85
2022/01/15 10:01:30;;;;;;;31.70;21.47;;;5.00;99.90;;;;;;5146138;27;20209;-84
2022/01/15 10:03:59;;;;;;;33.07;22.47;;;5.20;99.90;;;;;;5164015;27;20209;-83
2022/01/15 10:06:25;;;;;;;31.77;22.83;;;5.20;98.50;;;;;;5182031;27;20194;-82
2022/01/15 10:09:04;;;;;;;32.17;22.30;;;5.10;97.70;;;;;;5175787;27;20185;-87
2022/01/15 10:11:41;;;;;;;33.47;24.23;;;4.80;96.30;;;;;;5153309;27;20170;-82
2022/01/15 10:14:29;;;;;;;32.60;22.67;;;5.00;97.80;;;;;;5142841;27;20186;-83
2022/01/15 10:16:57;;;;;;;31.47;23.73;;;5.30;97.30;;;;;;5126837;27;20170;-84
2022/01/15 10:19:34;;;;;;;32.27;22.73;;;5.60;96.70;;;;;;5150732;27;20193;-87
2022/01/15 10:22:17;;;;;;;27.63;20.30;;;5.80;95.60;;;;;;5164456;27;20559;-83
2022/01/15 10:24:58;;;;;;;29.83;21.97;;;6.00;93.00;;;;;;5167134;27;20246;-81
2022/01/15 10:27:45;;;;;;;26.37;19.90;;;5.80;91.10;;;;;;5124713;27;20253;-82
2022/01/15 10:30:28;;;;;;;27.80;19.77;;;5.90;90.00;;;;;;5158866;27;20161;-82
2022/01/15 10:33:04;;;;;;;25.20;18.70;;;6.10;89.60;;;;;;5159608;27;20173;-88
2022/01/15 10:35:38;;;;;;;25.10;18.67;;;6.00;87.70;;;;;;5178345;27;20634;-82
2022/01/15 10:38:13;;;;;;;27.00;19.63;;;6.00;85.30;;;;;;5138169;27;20260;-86
2022/01/15 10:40:50;;;;;;;25.70;20.50;;;6.00;84.00;;;;;;5141175;27;20241;-84
2022/01/15 10:43:19;;;;;;;28.57;21.17;;;6.00;84.40;;;;;;5172068;27;20169;-88
2022/01/15 10:45:52;;;;;;;30.53;21.73;;;6.20;82.70;;;;;;5179783;27;20203;-87
2022/01/15 10:48:21;;;;;;;28.53;21.80;;;6.30;81.80;;;;;;5153152;27;20166;-87
2022/01/15 10:51:05;;;;;;;29.30;21.97;;;6.30;79.50;;;;;;5139017;27;20169;-84
2022/01/15 10:53:44;;;;;;;26.57;20.73;;;6.30;81.90;;;;;;5145576;27;20166;-81
2022/01/15 10:56:14;;;;;;;25.37;19.87;;;6.40;81.80;;;;;;5142369;27;20178;-81
2022/01/15 10:58:41;;;;;;;25.37;20.50;;;6.50;76.60;;;;;;5129546;27;20190;-85
2022/01/15 11:01:07;;;;;;;28.43;20.60;;;6.70;72.80;;;;;;5155281;27;20685;-84
2022/01/15 11:03:40;;;;;;;25.13;18.70;;;6.60;74.00;;;;;;5152315;27;20292;-83
2022/01/15 11:06:10;;;;;;;24.03;18.70;;;6.60;75.20;;;;;;5140463;27;20226;-80
2022/01/15 11:08:56;;;;;;;22.30;17.83;;;6.70;72.90;;;;;;5136321;27;20174;-82
2022/01/15 11:11:25;;;;;;;24.23;19.17;;;6.80;73.50;;;;;;5136474;27;20182;-83
2022/01/15 11:14:21;;;;;;;23.70;17.77;;;6.80;71.40;;;;;;5135238;27;20173;-81
2022/01/15 11:17:21;;;;;;;24.70;19.10;;;6.70;69.20;;;;;;5151990;27;20181;-83
2022/01/15 11:19:52;;;;;;;23.73;18.53;;;6.70;69.10;;;;;;5166894;27;20192;-80
2022/01/15 11:22:22;;;;;;;23.30;17.93;;;6.70;69.10;;;;;;5154801;27;20154;-81
2022/01/15 11:24:50;;;;;;;23.33;18.10;;;7.00;69.60;;;;;;5150792;27;20812;-87
2022/01/15 11:27:47;;;;;;;21.30;16.43;;;6.90;63.90;;;;;;5125560;27;20162;-80
2022/01/15 11:30:18;;;;;;;20.57;16.33;;;6.70;64.80;;;;;;5134342;27;20169;-82
2022/01/15 11:32:44;;;;;;;21.03;16.30;;;6.60;66.20;;;;;;5149556;27;20644;-81
2022/01/15 11:39:00;;;;;;;22.50;16.13;;;6.50;67.80;;;;;;5138588;27;20197;-87
2022/01/15 11:41:26;;;;;;;19.63;14.67;;;6.60;66.30;;;;;;5120939;27;20230;-85
2022/01/15 11:44:21;;;;;;;19.60;15.33;;;6.60;63.50;;;;;;5118910;27;20170;-84
2022/01/15 11:46:55;;;;;;;18.37;14.67;;;6.60;62.80;;;;;;5119185;27;20182;-84
2022/01/15 11:49:25;;;;;;;18.13;15.07;;;6.60;63.90;;;;;;5121226;27;20689;-85
2022/01/15 11:51:54;;;;;;;19.20;15.30;;;6.90;62.60;;;;;;5154465;27;20193;-83
2022/01/15 11:54:21;;;;;;;21.90;16.60;;;6.80;64.60;;;;;;5118368;27;20181;-82
2022/01/15 11:56:49;;;;;;;21.83;16.17;;;7.10;68.70;;;;;;5120548;27;20178;-88
2022/01/15 11:59:23;;;;;;;18.07;14.03;;;7.20;60.00;;;;;;5138471;27;20182;-81
2022/01/15 12:01:51;;;;;;;19.13;14.10;;;7.20;58.40;;;;;;5137713;27;20169;-81
2022/01/15 12:04:34;;;;;;;17.90;14.37;;;7.20;55.20;;;;;;5137581;27;20166;-89
2022/01/15 12:07:06;;;;;;;17.30;13.83;;;7.30;53.00;;;;;;5138323;27;20173;-84
2022/01/15 12:09:34;;;;;;;17.80;13.57;;;7.50;48.40;;;;;;5119604;27;20174;-86
2022/01/15 12:12:00;;;;;;;21.17;14.50;;;7.70;44.80;;;;;;5119949;27;20196;-92
2022/01/15 12:14:52;;;;;;;15.20;12.53;;;7.80;43.60;;;;;;5118970;27;20186;-84
2022/01/15 12:17:35;;;;;;;21.93;15.27;;;8.00;43.30;;;;;;5120607;27;20242;-88
2022/01/15 12:20:27;;;;;;;17.53;13.63;;;7.90;36.90;;;;;;5144345;27;20174;-88
2022/01/15 12:23:02;;;;;;;20.33;14.57;;;7.90;39.00;;;;;;5112176;27;20178;-82
2022/01/15 12:25:30;;;;;;;19.50;13.40;;;7.90;37.30;;;;;;5118746;27;20201;-89
2022/01/15 12:27:55;;;;;;;15.27;12.63;;;7.90;39.20;;;;;;5119414;27;20228;-86
2022/01/15 12:30:27;;;;;;;19.03;13.77;;;8.00;35.20;;;;;;5118817;27;20194;-86
2022/01/15 12:32:55;;;;;;;17.53;14.13;;;8.10;36.90;;;;;;5150220;27;20167;-83
2022/01/15 12:35:47;;;;;;;15.30;13.70;;;8.20;34.60;;;;;;5130055;27;20177;-81
2022/01/15 12:38:16;;;;;;;16.30;13.20;;;8.20;33.20;;;;;;5112712;27;20195;-79
2022/01/15 12:40:54;;;;;;;18.60;13.07;;;8.30;33.20;;;;;;5131341;27;20178;-84
2022/01/15 12:43:27;;;;;;;19.20;14.90;;;8.40;32.50;;;;;;5146344;27;20553;-85
2022/01/15 12:46:06;;;;;;;19.37;13.83;;;8.60;31.10;;;;;;5121858;28;20209;-86
2022/01/15 12:48:36;;;;;;;14.97;12.97;;;8.70;29.20;;;;;;5143910;27;20206;-82
2022/01/15 12:51:05;;;;;;;18.57;14.27;;;8.70;27.00;;;;;;5147065;27;20159;-82
2022/01/15 12:53:57;;;;;;;17.17;14.07;;;8.90;25.40;;;;;;5147161;28;20159;-85
2022/01/15 12:56:27;;;;;;;17.57;13.23;;;8.90;24.20;;;;;;5148060;28;20158;-82
2022/01/15 12:58:53;;;;;;;17.13;14.03;;;9.00;22.20;;;;;;5144347;27;20213;-81
2022/01/15 13:01:22;;;;;;;15.67;13.17;;;9.00;10.70;;;;;;5126407;28;20261;-82
2022/01/15 13:03:52;;;;;;;16.13;13.17;;;9.00;8.40;;;;;;5145045;28;20194;-87
2022/01/15 13:06:24;;;;;;;16.53;13.50;;;8.80;8.60;;;;;;5146385;27;20198;-86
2022/01/15 13:08:50;;;;;;;16.47;12.93;;;8.90;10.60;;;;;;5129682;27;20272;-83
2022/01/15 13:11:21;;;;;;;17.30;13.73;;;8.80;5.80;;;;;;5132236;27;20158;-83
2022/01/15 13:13:56;;;;;;;17.23;14.00;;;8.90;6.90;;;;;;5149317;27;20208;-83
2022/01/15 13:16:26;;;;;;;16.07;13.37;;;8.50;15.50;;;;;;5147093;27;20158;-88
2022/01/15 13:19:02;;;;;;;18.23;13.50;;;8.80;17.60;;;;;;5127866;27;20178;-87
2022/01/15 13:21:36;;;;;;;18.13;14.17;;;8.80;14.70;;;;;;5127118;27;20162;-83
2022/01/15 13:24:10;;;;;;;17.43;14.60;;;8.70;14.70;;;;;;5159765;27;20222;-82
2022/01/15 13:26:42;;;;;;;18.00;14.37;;;8.90;15.30;;;;;;5149322;27;20209;-82